Pottsboro, Texas
Current Conditions -  °F | °C
As of 10:15 PM on Sunday 25 Jan 2015 (Local Time) from KGYI Reporting Station
Clear Clear  
Wind Chill:   Ceiling: Unl
Heat Index:   Visibility: 10mi
Dew Point:   Wind: 5mph
Humidity: 63%   Direction: 340°NNW
Pressure: 30.17"   Gusts: NA
Location:  33.76°N, 96.67°W
Report Text: KGYI 260415Z AUTO 34004KT 10SM CLR 07/00 A3017 RMK AO2 T00670000
Loading
Personal Weather Stations






























Interactive Weather Map New forecast layout! Learn more

10-Day Weather Forecast

Advertisements
Track Severe Weather on mobile